Grootmis, South Africa
Current Conditions -  °F | °C
As of 2:00 PM on Thursday 29 Jan 2015 (Local Time) from FAUP Reporting Station
Scattered Clouds Scattered Clouds  
Wind Chill: 93°   Ceiling: Unl
Heat Index: 93°   Visibility: 6mi
Dew Point: 48°   Wind: 10mph
Humidity: 21%   Direction: 10°N
Pressure: 29.88"   Gusts: NA
Location:  29.65°S, 17.08°E
Report Text: FAUP 291200Z 01009KT 9999 SCT050 FEW060CB 34/09 Q1012 TEMPO 5000 TSRA
Loading
Personal Weather Stations






























Interactive Weather Map New forecast layout! Learn more

10-Day Weather Forecast

Advertisements
Track Severe Weather on mobile